Route Details

Aircraft Information
Group: European Fleet
Types: A30F, A31F, B738
Route Data
Distance: 145nm
Duration: 0h 40m
Origin METAR: EDDW 171120Z AUTO 12009KT CAVOK 29/15 Q1010 NOSIG
Dest. METAR: EDDK 171120Z AUTO 26005KT 200V330 CAVOK 25/15 Q1011 NOSIG
Freight Data
(for Aug 18, 2022)
Load Factor:
45%
Manifested Cargo: 45,234lbs
Financial History
Total Freight: 526,947lbs
Average Load: 0lbs/flt
Fuel Used: 68,979lbs
Avg. Fuel Used: 0lbs/flt
Fuel Expense: $27,965
Avg. Fuel Expense: $0
Avg. Fuel Cost: $0/lbs
Total Gross Income: $1,131,268
Pilot Pay: $2,669
Total Expenses: $186,292
Total Revenue: $904,164
Average Revenue: $0

Capitol Logistics 552




EDDW
Bremen Airport
Bremen, DE
EDDK
Cologne Bonn Airport
Cologne, DE